Time;durP1;ratioP1;P1;durP2;ratioP2;P2;SDS_P1;SDS_P2;PMS_P1;PMS_P2;Temp;Humidity;BMP_temperature;BMP_pressure;BME280_temperature;BME280_humidity;BME280_pressure;Samples;Min_cycle;Max_cycle;Signal;HPM_P1;HPM_P2
2022/08/13 04:01:51;;;;;;;3.37;3.07;;;10.40;96.30;;;;;;5360890;23;21011;-78
2022/08/13 04:04:18;;;;;;;3.10;2.90;;;10.40;96.30;;;;;;5018125;28;20446;-78
2022/08/13 04:06:44;;;;;;;3.83;3.17;;;10.40;96.30;;;;;;5032290;28;20460;-76
2022/08/13 04:09:09;;;;;;;3.83;3.20;;;10.50;96.30;;;;;;5029906;28;20447;-78
2022/08/13 04:11:34;;;;;;;3.70;3.40;;;10.50;96.30;;;;;;5013786;28;20189;-79
2022/08/13 04:14:00;;;;;;;3.33;3.03;;;10.60;96.30;;;;;;5012620;28;20176;-78
2022/08/13 04:16:26;;;;;;;3.67;3.37;;;10.60;96.30;;;;;;5014858;28;20617;-79
2022/08/13 04:18:54;;;;;;;4.93;3.73;;;10.60;96.30;;;;;;5025305;28;20214;-79
2022/08/13 04:31:39;;;;;;;3.67;2.83;;;10.80;96.30;;;;;;4992212;28;20476;-77
2022/08/13 04:34:05;;;;;;;4.17;3.83;;;10.90;96.30;;;;;;4976689;28;20416;-77
2022/08/13 04:36:31;;;;;;;6.30;3.60;;;11.00;96.30;;;;;;4993758;28;20177;-77
2022/08/13 04:38:56;;;;;;;3.30;3.10;;;11.10;96.30;;;;;;5012928;28;20455;-77
2022/08/13 04:41:22;;;;;;;5.63;3.10;;;11.40;96.30;;;;;;4999888;28;20197;-79
2022/08/13 04:43:47;;;;;;;3.63;3.33;;;11.70;96.30;;;;;;4993773;28;20304;-77
2022/08/13 04:46:13;;;;;;;10.40;3.10;;;12.10;96.30;;;;;;4994529;28;20633;-80
2022/08/13 04:48:38;;;;;;;6.23;2.70;;;12.60;96.30;;;;;;4976812;28;20724;-80
2022/08/13 04:51:05;;;;;;;3.23;2.93;;;13.20;96.30;;;;;;4994860;28;20280;-80
2022/08/13 04:53:33;;;;;;;3.17;2.87;;;13.60;96.30;;;;;;4977565;28;20178;-79
2022/08/13 04:55:59;;;;;;;5.03;2.83;;;13.80;96.30;;;;;;4977219;28;20433;-80
2022/08/13 04:58:32;;;;;;;3.40;3.10;;;13.90;96.30;;;;;;4994718;28;20412;-80
2022/08/13 05:01:03;;;;;;;2.90;2.70;;;14.10;96.30;;;;;;4995079;28;20464;-80
2022/08/13 05:03:29;;;;;;;2.80;2.60;;;14.10;96.30;;;;;;4994890;28;20441;-80
2022/08/13 05:05:56;;;;;;;2.53;2.00;;;14.00;96.30;;;;;;4995677;28;20948;-78
2022/08/13 05:08:22;;;;;;;9.00;3.00;;;13.70;96.30;;;;;;4994397;28;20180;-79
2022/08/13 05:10:49;;;;;;;6.60;3.47;;;13.50;96.30;;;;;;5012561;28;20892;-80
2022/08/13 05:13:30;;;;;;;4.30;3.10;;;13.40;96.30;;;;;;4996758;28;20785;-79
2022/08/13 05:16:01;;;;;;;3.40;3.10;;;13.30;96.30;;;;;;5015193;28;20424;-80
2022/08/13 05:18:29;;;;;;;9.70;3.67;;;13.50;96.30;;;;;;4996393;28;20523;-80
2022/08/13 05:20:56;;;;;;;4.70;4.30;;;13.50;96.30;;;;;;5014601;28;20912;-80
2022/08/13 05:23:23;;;;;;;3.17;2.87;;;13.60;96.30;;;;;;5014279;28;21388;-80
2022/08/13 05:25:50;;;;;;;5.47;2.83;;;13.70;96.30;;;;;;4996413;28;20470;-79
2022/08/13 05:28:17;;;;;;;3.20;2.70;;;13.70;96.30;;;;;;5013750;28;20452;-79
2022/08/13 05:30:46;;;;;;;4.13;3.70;;;13.80;96.30;;;;;;5014431;28;21022;-80
2022/08/13 05:33:14;;;;;;;3.33;3.03;;;13.80;96.30;;;;;;5014787;28;20412;-79
2022/08/13 05:35:42;;;;;;;3.70;2.83;;;14.00;96.30;;;;;;4997107;28;20474;-80
2022/08/13 05:38:08;;;;;;;3.60;3.10;;;14.50;96.30;;;;;;4997148;28;20428;-79
2022/08/13 05:40:35;;;;;;;4.00;3.10;;;15.60;96.30;;;;;;5008511;28;20809;-80
2022/08/13 05:43:02;;;;;;;5.70;3.10;;;16.40;96.30;;;;;;4994930;28;20763;-77
2022/08/13 05:45:27;;;;;;;4.37;2.60;;;17.20;96.30;;;;;;4992805;28;20409;-78
2022/08/13 05:47:53;;;;;;;3.90;2.73;;;18.10;96.30;;;;;;4992185;28;20558;-78
2022/08/13 05:50:18;;;;;;;6.73;2.37;;;19.50;96.30;;;;;;4996394;28;20181;-80
2022/08/13 05:52:44;;;;;;;3.03;2.67;;;20.30;96.30;;;;;;4978839;28;20185;-80
2022/08/13 05:55:12;;;;;;;2.70;2.30;;;21.40;94.80;;;;;;4996082;28;20182;-80
2022/08/13 05:57:40;;;;;;;2.53;2.33;;;22.50;90.90;;;;;;4995991;28;20606;-81
2022/08/13 06:05:39;;;;;;;2.77;2.57;;;23.60;86.20;;;;;;4996493;28;20412;-80
2022/08/13 06:08:05;;;;;;;2.40;2.20;;;23.90;84.90;;;;;;4995268;28;20427;-80
2022/08/13 06:10:32;;;;;;;3.20;2.67;;;24.50;83.90;;;;;;5011627;28;20435;-80
2022/08/13 06:12:58;;;;;;;2.90;2.40;;;24.80;82.60;;;;;;5015581;28;20408;-80
2022/08/13 06:15:25;;;;;;;16.83;2.50;;;24.90;81.80;;;;;;5015384;28;20418;-80
2022/08/13 06:17:51;;;;;;;2.67;2.47;;;25.20;81.90;;;;;;5015290;28;20495;-81
2022/08/13 06:20:19;;;;;;;3.63;2.80;;;26.30;78.40;;;;;;5015225;28;20411;-80
2022/08/13 06:22:47;;;;;;;4.87;2.00;;;25.50;79.70;;;;;;5019214;28;20466;-81
2022/08/13 06:25:15;;;;;;;3.63;2.23;;;25.30;81.50;;;;;;5019757;28;20439;-81
2022/08/13 06:27:41;;;;;;;5.70;2.77;;;26.20;80.00;;;;;;5001713;28;20430;-81
2022/08/13 06:30:08;;;;;;;2.60;2.30;;;27.00;78.10;;;;;;5001195;28;20517;-81
2022/08/13 06:32:36;;;;;;;5.00;2.33;;;27.40;76.80;;;;;;5001872;28;20535;-81
2022/08/13 06:35:04;;;;;;;8.90;2.10;;;28.00;74.30;;;;;;5001610;28;20426;-81
2022/08/13 06:37:29;;;;;;;2.70;2.50;;;27.40;76.40;;;;;;5001047;28;20419;-78
2022/08/13 06:39:56;;;;;;;2.53;2.30;;;26.60;77.20;;;;;;4996113;28;20176;-78
2022/08/13 06:42:22;;;;;;;2.55;2.20;;;28.00;75.10;;;;;;4995966;28;20220;-78
2022/08/13 06:44:50;;;;;;;2.20;2.00;;;28.30;74.60;;;;;;4978673;28;20181;-78
2022/08/13 06:47:16;;;;;;;12.13;2.30;;;29.60;70.80;;;;;;4996032;28;20232;-78
2022/08/13 06:49:41;;;;;;;5.00;1.90;;;29.50;70.80;;;;;;4995428;28;20738;-78
2022/08/13 06:52:07;;;;;;;2.13;1.95;;;29.60;71.10;;;;;;4995945;28;20201;-78
2022/08/13 06:54:33;;;;;;;4.70;2.22;;;29.30;71.90;;;;;;4978514;28;20184;-78
2022/08/13 06:56:59;;;;;;;5.47;1.95;;;29.80;69.70;;;;;;4978341;28;20219;-78
2022/08/13 06:59:25;;;;;;;3.60;2.33;;;29.70;70.70;;;;;;4995276;28;20177;-78
2022/08/13 07:01:57;;;;;;;2.83;2.17;;;30.20;69.70;;;;;;4995687;28;20217;-78
2022/08/13 07:04:23;;;;;;;2.83;2.25;;;29.50;70.80;;;;;;4995685;28;20195;-78
2022/08/13 07:06:50;;;;;;;2.88;1.90;;;30.80;69.80;;;;;;4995811;28;20173;-78
2022/08/13 07:09:17;;;;;;;11.75;3.67;;;31.40;67.20;;;;;;4983498;28;20180;-78
2022/08/13 07:11:45;;;;;;;2.92;2.40;;;32.20;66.30;;;;;;4997765;28;20196;-78
2022/08/13 07:14:13;;;;;;;4.15;2.88;;;33.40;62.80;;;;;;4997791;28;20548;-78
2022/08/13 07:16:40;;;;;;;7.00;2.40;;;32.30;64.20;;;;;;4997579;28;20176;-78
2022/08/13 07:19:06;;;;;;;5.22;2.83;;;32.10;65.00;;;;;;4996965;28;20183;-78
2022/08/13 07:21:32;;;;;;;6.25;2.70;;;32.20;65.20;;;;;;5015097;28;20200;-78
2022/08/13 07:24:01;;;;;;;7.45;2.40;;;31.30;66.80;;;;;;4997236;28;20177;-78
2022/08/13 07:26:30;;;;;;;4.50;2.30;;;30.90;67.70;;;;;;4997244;28;20241;-77
2022/08/13 07:28:55;;;;;;;4.22;3.00;;;30.10;69.90;;;;;;5014349;28;20255;-77
2022/08/13 07:31:24;;;;;;;2.43;2.10;;;29.10;71.80;;;;;;5014888;28;20310;-77
2022/08/13 07:33:51;;;;;;;3.20;2.90;;;28.30;74.00;;;;;;5013781;28;20248;-77
2022/08/13 07:36:19;;;;;;;3.03;2.43;;;27.50;75.20;;;;;;5015081;28;20761;-77
2022/08/13 07:38:46;;;;;;;3.13;2.57;;;26.70;76.50;;;;;;5013994;28;20490;-77
2022/08/13 07:41:13;;;;;;;2.73;2.53;;;26.10;78.60;;;;;;5002717;28;20498;-77
2022/08/13 07:43:43;;;;;;;3.53;2.83;;;25.70;79.90;;;;;;4995143;28;20938;-77
2022/08/13 07:46:12;;;;;;;3.10;2.87;;;24.90;82.50;;;;;;4998718;28;20448;-79
2022/08/13 07:48:40;;;;;;;6.70;2.73;;;24.80;82.30;;;;;;4997997;28;20463;-79
2022/08/13 07:51:19;;;;;;;2.63;2.40;;;24.60;83.30;;;;;;4981484;28;20542;-79
2022/08/13 07:53:49;;;;;;;2.93;2.43;;;24.50;83.50;;;;;;4999325;28;20443;-79
2022/08/13 07:56:29;;;;;;;2.93;2.50;;;24.50;84.70;;;;;;4981736;28;20425;-79
2022/08/13 07:59:19;;;;;;;5.60;2.80;;;24.30;85.20;;;;;;4998735;28;20469;-79
2022/08/13 08:01:50;;;;;;;6.97;2.87;;;24.20;86.00;;;;;;4980746;28;20468;-79
2022/08/13 08:04:18;;;;;;;2.80;2.60;;;23.70;86.40;;;;;;4998701;28;20521;-80
2022/08/13 08:06:47;;;;;;;4.30;2.73;;;23.50;88.20;;;;;;4998662;28;20435;-80
2022/08/13 08:09:18;;;;;;;3.13;2.83;;;23.40;88.30;;;;;;5003500;28;20419;-79
2022/08/13 08:14:30;;;;;;;2.90;2.70;;;23.10;91.40;;;;;;5018338;28;20502;-79
2022/08/13 08:16:59;;;;;;;2.93;2.53;;;22.80;91.40;;;;;;5000437;28;20567;-79
2022/08/13 08:19:27;;;;;;;7.30;3.10;;;22.50;93.00;;;;;;5017135;28;20900;-79
2022/08/13 08:21:56;;;;;;;4.17;3.10;;;22.60;94.10;;;;;;5017372;28;20463;-79
2022/08/13 08:24:23;;;;;;;4.10;3.00;;;22.60;93.90;;;;;;5017672;28;20416;-79
2022/08/13 08:26:49;;;;;;;3.67;3.40;;;22.50;94.50;;;;;;5017900;28;20408;-79
2022/08/13 08:29:16;;;;;;;3.47;3.17;;;22.40;95.10;;;;;;5017186;28;20502;-79
2022/08/13 08:31:41;;;;;;;6.00;3.43;;;22.40;95.80;;;;;;4999864;28;20447;-79
2022/08/13 08:34:08;;;;;;;4.50;3.60;;;22.40;94.20;;;;;;5017859;28;20434;-79
2022/08/13 08:36:37;;;;;;;4.90;3.73;;;22.30;96.30;;;;;;5017622;28;20181;-79
2022/08/13 08:44:37;;;;;;;4.10;3.70;;;22.10;96.30;;;;;;4997377;28;20452;-80
2022/08/13 08:47:03;;;;;;;8.93;4.10;;;22.00;96.30;;;;;;4997394;28;20413;-79
2022/08/13 08:49:30;;;;;;;4.50;3.80;;;22.20;96.30;;;;;;4997202;28;20419;-79
2022/08/13 08:51:57;;;;;;;9.87;4.53;;;22.30;96.30;;;;;;4998131;28;20432;-79
2022/08/13 08:54:23;;;;;;;4.50;3.70;;;22.30;96.30;;;;;;4998379;28;20409;-79
2022/08/13 08:56:54;;;;;;;4.60;4.20;;;22.20;96.30;;;;;;4997740;28;20479;-79
2022/08/13 08:59:23;;;;;;;4.60;4.10;;;22.10;96.30;;;;;;4996608;28;20417;-79
2022/08/13 09:01:55;;;;;;;4.67;4.27;;;22.00;96.30;;;;;;4997793;28;20471;-79
2022/08/13 09:04:21;;;;;;;5.50;4.67;;;22.00;96.30;;;;;;4997466;28;20828;-79
2022/08/13 09:06:52;;;;;;;6.33;4.70;;;22.00;96.30;;;;;;4997827;28;20960;-79
2022/08/13 09:09:18;;;;;;;5.00;4.50;;;22.00;96.30;;;;;;5002792;28;20481;-79
2022/08/13 09:11:44;;;;;;;4.93;4.53;;;22.00;96.30;;;;;;4999628;28;20955;-79
2022/08/13 09:14:10;;;;;;;5.77;5.13;;;22.00;96.30;;;;;;5016846;28;20447;-79
2022/08/13 09:16:39;;;;;;;7.37;4.57;;;21.80;96.30;;;;;;5017148;28;20478;-78
2022/08/13 09:19:11;;;;;;;5.90;5.07;;;21.70;96.30;;;;;;5016453;28;20539;-79
2022/08/13 09:21:47;;;;;;;4.93;4.53;;;21.60;96.30;;;;;;5016313;28;20513;-79
2022/08/13 09:24:15;;;;;;;6.53;5.83;;;21.40;96.30;;;;;;5016526;28;20446;-79
2022/08/13 09:26:47;;;;;;;6.03;5.40;;;21.40;96.30;;;;;;5016907;28;20778;-79
2022/08/13 09:29:14;;;;;;;6.27;5.70;;;21.30;96.30;;;;;;5016158;28;20462;-79
2022/08/13 09:31:44;;;;;;;5.47;5.07;;;21.40;96.30;;;;;;5016623;28;20443;-79
2022/08/13 09:34:11;;;;;;;7.13;5.43;;;21.30;96.30;;;;;;5016060;28;20408;-79
2022/08/13 09:36:37;;;;;;;7.53;4.70;;;21.00;96.30;;;;;;5016367;28;20416;-79
2022/08/13 09:39:03;;;;;;;8.50;5.53;;;20.70;96.30;;;;;;5014947;28;20431;-79
2022/08/13 09:41:37;;;;;;;6.60;5.50;;;20.30;96.30;;;;;;5000446;28;20479;-78
2022/08/13 09:44:04;;;;;;;11.63;6.57;;;20.20;96.30;;;;;;4994672;28;20417;-78
2022/08/13 09:46:31;;;;;;;9.87;6.20;;;20.20;96.30;;;;;;4994150;28;20409;-78
2022/08/13 09:48:58;;;;;;;12.67;7.10;;;20.00;96.30;;;;;;4976393;28;20420;-78
2022/08/13 09:51:24;;;;;;;9.57;6.67;;;20.10;96.30;;;;;;4994235;28;20428;-78
2022/08/13 09:53:51;;;;;;;7.00;6.30;;;20.10;96.30;;;;;;4977181;28;20435;-79
2022/08/13 09:56:17;;;;;;;10.20;7.23;;;20.00;96.30;;;;;;4993432;28;20413;-78
2022/08/13 09:58:44;;;;;;;10.70;7.40;;;19.70;96.30;;;;;;4993956;28;20420;-78
2022/08/13 10:01:11;;;;;;;7.83;6.57;;;19.20;96.30;;;;;;4994585;28;20229;-79
2022/08/13 10:03:40;;;;;;;7.07;6.30;;;19.20;96.30;;;;;;4994829;28;20417;-79
2022/08/13 10:06:07;;;;;;;6.77;6.17;;;19.10;96.30;;;;;;4994399;28;20471;-79
2022/08/13 10:08:33;;;;;;;9.43;7.47;;;19.00;96.30;;;;;;4996469;28;20412;-79
2022/08/13 10:10:59;;;;;;;7.87;7.20;;;18.90;96.30;;;;;;5013366;28;20428;-75
2022/08/13 10:13:26;;;;;;;8.27;7.40;;;18.90;96.30;;;;;;4994696;28;20424;-76
2022/08/13 10:15:51;;;;;;;8.97;8.10;;;18.90;96.30;;;;;;5012719;28;20554;-73
2022/08/13 10:18:17;;;;;;;8.83;7.93;;;18.90;96.30;;;;;;5011476;28;20959;-73
2022/08/13 10:23:18;;;;;;;8.90;7.93;;;18.80;96.30;;;;;;5404097;23;20464;-74
2022/08/13 10:25:46;;;;;;;8.43;7.57;;;18.80;96.30;;;;;;5031730;28;20454;-74
2022/08/13 10:28:31;;;;;;;7.63;6.93;;;18.70;96.30;;;;;;5031195;28;20259;-74
2022/08/13 10:31:00;;;;;;;13.57;8.73;;;18.80;96.30;;;;;;5031685;28;20419;-75
2022/08/13 10:33:26;;;;;;;9.77;8.77;;;18.90;96.30;;;;;;5031647;28;20403;-77
2022/08/13 10:35:52;;;;;;;9.40;8.60;;;18.90;96.30;;;;;;5030232;28;20767;-77
2022/08/13 10:38:21;;;;;;;9.13;8.20;;;19.00;96.30;;;;;;5031239;28;20434;-77
2022/08/13 10:40:47;;;;;;;11.47;9.73;;;19.10;96.30;;;;;;5031213;28;20459;-77
2022/08/13 10:43:12;;;;;;;10.40;9.17;;;19.20;96.30;;;;;;5031835;28;20441;-78
2022/08/13 10:45:42;;;;;;;10.30;9.23;;;19.20;96.30;;;;;;5031941;28;20169;-78
2022/08/13 10:48:13;;;;;;;11.40;10.20;;;19.30;96.30;;;;;;5033058;28;20172;-78
2022/08/13 10:50:40;;;;;;;14.43;10.50;;;19.50;96.30;;;;;;5035345;28;20474;-79
2022/08/13 10:53:06;;;;;;;11.27;10.37;;;19.50;96.30;;;;;;5036642;28;20419;-80
2022/08/13 10:55:33;;;;;;;12.10;10.90;;;19.50;96.30;;;;;;5037758;28;20950;-80
2022/08/13 10:57:58;;;;;;;11.20;10.20;;;19.50;96.30;;;;;;5036654;28;20184;-80
2022/08/13 11:00:25;;;;;;;11.10;10.00;;;19.50;96.30;;;;;;5034741;28;20415;-81
2022/08/13 11:02:50;;;;;;;12.60;10.77;;;19.50;96.30;;;;;;5033637;28;20212;-82
2022/08/13 11:05:22;;;;;;;12.03;11.00;;;19.70;96.30;;;;;;5033360;28;20545;-82
2022/08/13 11:07:48;;;;;;;11.70;10.60;;;20.10;96.30;;;;;;5034620;28;20183;-80
2022/08/13 11:10:14;;;;;;;12.57;11.07;;;20.60;96.30;;;;;;5020161;28;20416;-82
2022/08/13 11:12:44;;;;;;;11.47;10.43;;;20.80;96.30;;;;;;5016350;28;20473;-81
2022/08/13 11:15:10;;;;;;;12.67;11.37;;;21.20;96.30;;;;;;5015874;28;20173;-81
2022/08/13 11:17:36;;;;;;;12.40;11.27;;;21.70;96.30;;;;;;5014963;28;20800;-82
2022/08/13 11:20:04;;;;;;;13.20;10.80;;;21.90;96.30;;;;;;5015793;28;20629;-81
2022/08/13 11:22:29;;;;;;;11.00;9.93;;;21.70;96.30;;;;;;5019573;28;20231;-81
2022/08/13 11:24:57;;;;;;;12.63;11.63;;;21.90;96.30;;;;;;5021694;28;20408;-80
2022/08/13 11:27:23;;;;;;;12.13;11.03;;;22.00;96.30;;;;;;5020834;28;20204;-79
2022/08/13 11:29:49;;;;;;;12.27;11.17;;;22.10;96.30;;;;;;5021111;28;20424;-79
2022/08/13 11:32:14;;;;;;;15.53;11.77;;;22.20;96.30;;;;;;5021192;28;20246;-79
2022/08/13 11:34:40;;;;;;;12.80;11.60;;;22.00;96.30;;;;;;5021870;28;20181;-81
2022/08/13 11:37:05;;;;;;;12.00;10.80;;;21.80;96.30;;;;;;5021173;28;20208;-81
2022/08/13 11:39:30;;;;;;;13.07;11.40;;;21.60;96.30;;;;;;5018404;28;20187;-80
2022/08/13 11:41:56;;;;;;;12.60;11.43;;;21.20;96.30;;;;;;5037609;28;20802;-80
2022/08/13 11:44:22;;;;;;;13.23;11.77;;;20.90;96.30;;;;;;5039994;28;20180;-80
2022/08/13 11:46:47;;;;;;;13.37;12.07;;;21.20;96.30;;;;;;5039316;28;20644;-80
2022/08/13 11:49:13;;;;;;;13.20;11.80;;;20.90;96.30;;;;;;5037458;28;20168;-80
2022/08/13 11:51:38;;;;;;;13.47;12.23;;;21.00;96.30;;;;;;5039352;28;20722;-81
2022/08/13 11:54:04;;;;;;;13.67;12.27;;;21.50;96.30;;;;;;5038457;28;20569;-81
2022/08/13 11:56:29;;;;;;;13.40;12.20;;;21.90;96.30;;;;;;5037610;28;20184;-79
2022/08/13 11:58:55;;;;;;;15.70;14.17;;;22.30;96.30;;;;;;5037476;28;20544;-81
2022/08/13 12:01:22;;;;;;;14.73;13.33;;;23.10;96.30;;;;;;5036987;28;20294;-81
2022/08/13 12:03:47;;;;;;;14.27;12.87;;;23.30;96.30;;;;;;5037384;28;20165;-81
2022/08/13 12:06:13;;;;;;;13.93;12.53;;;23.20;96.30;;;;;;5036504;28;20414;-81
2022/08/13 12:08:39;;;;;;;13.53;12.33;;;23.20;96.30;;;;;;5035420;28;20210;-82
2022/08/13 12:11:04;;;;;;;11.03;10.07;;;23.00;96.30;;;;;;5015918;28;20432;-80
2022/08/13 12:13:30;;;;;;;11.53;10.50;;;23.00;96.30;;;;;;5017709;28;20177;-79
2022/08/13 12:15:56;;;;;;;13.40;12.00;;;22.80;96.30;;;;;;5016979;28;20176;-81
2022/08/13 12:18:21;;;;;;;11.87;10.87;;;22.60;96.30;;;;;;5017472;28;20177;-80
2022/08/13 12:20:47;;;;;;;12.53;10.83;;;22.40;96.30;;;;;;5018437;28;20223;-80
2022/08/13 12:23:13;;;;;;;11.60;10.50;;;22.30;96.30;;;;;;5017763;28;20220;-80
2022/08/13 12:25:39;;;;;;;12.13;10.40;;;21.90;96.30;;;;;;5019011;28;20169;-79
2022/08/13 12:28:11;;;;;;;14.20;11.43;;;21.70;96.30;;;;;;5018784;28;20172;-80
2022/08/13 12:30:37;;;;;;;14.73;11.20;;;21.50;96.30;;;;;;5017354;28;20197;-81
2022/08/13 12:33:04;;;;;;;15.80;11.70;;;21.50;96.30;;;;;;5018981;28;20919;-80
2022/08/13 12:35:29;;;;;;;13.20;11.40;;;21.50;96.30;;;;;;5016817;28;20181;-80
2022/08/13 12:37:55;;;;;;;12.73;11.40;;;21.60;96.30;;;;;;5015791;28;20942;-80
2022/08/13 12:40:21;;;;;;;19.50;12.07;;;21.50;96.30;;;;;;5020979;28;20174;-81
2022/08/13 12:42:46;;;;;;;14.17;12.80;;;21.60;96.30;;;;;;5033346;28;20192;-77
2022/08/13 12:45:13;;;;;;;21.40;12.10;;;21.80;96.30;;;;;;5033117;28;20211;-77
2022/08/13 12:47:39;;;;;;;13.00;11.70;;;22.00;96.30;;;;;;5033238;28;20172;-77
2022/08/13 12:50:05;;;;;;;13.00;11.93;;;22.20;96.30;;;;;;5032805;28;20968;-77
2022/08/13 12:52:31;;;;;;;12.63;11.10;;;22.40;96.30;;;;;;5033063;28;20462;-77
2022/08/13 12:54:57;;;;;;;13.73;11.60;;;22.60;96.30;;;;;;5032977;28;20190;-77
2022/08/13 12:57:22;;;;;;;10.97;9.77;;;23.00;96.30;;;;;;5033033;28;20636;-77
2022/08/13 12:59:47;;;;;;;10.63;9.53;;;23.10;96.30;;;;;;5032358;28;20181;-80
2022/08/13 13:02:14;;;;;;;10.97;9.93;;;23.30;96.30;;;;;;5031402;28;20569;-77
2022/08/13 13:04:41;;;;;;;9.77;8.80;;;23.50;96.30;;;;;;5031511;28;20172;-77
2022/08/13 13:07:07;;;;;;;9.17;7.33;;;23.40;96.30;;;;;;5032777;28;20403;-77
2022/08/13 13:09:32;;;;;;;10.87;8.10;;;23.50;96.30;;;;;;5023553;28;20423;-77
2022/08/13 13:11:58;;;;;;;8.93;8.03;;;23.30;96.30;;;;;;5012910;28;20318;-80
2022/08/13 13:14:23;;;;;;;8.30;7.60;;;23.40;96.30;;;;;;5012868;28;20177;-77
2022/08/13 13:16:49;;;;;;;9.47;8.67;;;23.50;96.30;;;;;;5012979;28;20231;-77
2022/08/13 13:19:14;;;;;;;8.53;7.50;;;23.50;96.30;;;;;;5012219;28;20676;-80
2022/08/13 13:21:40;;;;;;;9.67;7.77;;;23.30;96.30;;;;;;5012814;28;20239;-77
2022/08/13 13:24:12;;;;;;;8.30;7.57;;;22.90;96.30;;;;;;5012761;28;20624;-77
2022/08/13 13:26:37;;;;;;;9.70;8.70;;;22.60;96.30;;;;;;5012677;28;20149;-77
2022/08/13 13:29:03;;;;;;;9.67;8.77;;;22.60;96.30;;;;;;5012034;28;20419;-78
2022/08/13 13:31:28;;;;;;;9.13;8.30;;;22.60;96.30;;;;;;5012645;28;20584;-77
2022/08/13 13:33:54;;;;;;;9.50;8.67;;;22.50;96.30;;;;;;5012598;28;20693;-77
2022/08/13 13:36:19;;;;;;;10.77;8.50;;;22.10;96.30;;;;;;5012595;28;20259;-77
2022/08/13 13:38:45;;;;;;;12.60;8.73;;;22.30;96.30;;;;;;5012069;28;20180;-77
2022/08/13 13:41:11;;;;;;;9.37;8.13;;;22.10;96.30;;;;;;5023922;28;20200;-77
2022/08/13 13:43:37;;;;;;;10.60;8.10;;;22.30;96.30;;;;;;5030962;28;20176;-77
2022/08/13 13:46:03;;;;;;;21.43;8.47;;;22.30;96.30;;;;;;5032173;28;20164;-77
2022/08/13 13:48:39;;;;;;;9.07;8.27;;;22.20;96.30;;;;;;5031596;28;20440;-77
2022/08/13 13:51:07;;;;;;;8.90;8.00;;;22.10;96.30;;;;;;5032142;28;20732;-77
2022/08/13 13:53:33;;;;;;;10.17;8.70;;;22.10;96.30;;;;;;5032119;28;20426;-77
2022/08/13 13:56:06;;;;;;;11.30;8.17;;;21.90;96.30;;;;;;5031944;28;20956;-77
2022/08/13 13:58:34;;;;;;;11.77;8.90;;;21.80;96.30;;;;;;5031567;28;20414;-77
2022/08/13 14:01:01;;;;;;;9.00;8.20;;;21.70;96.30;;;;;;5031788;28;20553;-77
2022/08/13 14:03:28;;;;;;;10.00;9.00;;;21.60;96.30;;;;;;5031886;28;20407;-78
2022/08/13 14:05:54;;;;;;;8.53;7.73;;;21.60;96.30;;;;;;5030783;28;20415;-77
2022/08/13 14:08:20;;;;;;;8.20;7.40;;;21.40;96.30;;;;;;5031402;28;20415;-77
2022/08/13 14:10:46;;;;;;;11.97;8.70;;;21.30;96.30;;;;;;5012090;28;20437;-77
2022/08/13 14:13:13;;;;;;;11.90;7.93;;;21.30;96.30;;;;;;5012243;28;20176;-77
2022/08/13 14:15:38;;;;;;;8.70;7.90;;;21.50;96.30;;;;;;5012218;28;20431;-77
2022/08/13 14:18:10;;;;;;;10.00;7.17;;;21.50;96.30;;;;;;5011460;28;20443;-77
2022/08/13 14:20:40;;;;;;;9.60;8.37;;;21.60;96.30;;;;;;5012021;28;20193;-77
2022/08/13 14:23:07;;;;;;;11.50;7.50;;;21.50;96.30;;;;;;5012037;28;20432;-77
2022/08/13 14:25:34;;;;;;;9.10;8.20;;;21.60;96.30;;;;;;5010733;28;20494;-77
2022/08/13 14:28:00;;;;;;;8.63;7.77;;;22.00;96.30;;;;;;5011450;28;20423;-77
2022/08/13 14:30:26;;;;;;;11.60;8.07;;;22.30;96.30;;;;;;5010679;28;20820;-77
2022/08/13 14:32:51;;;;;;;8.90;7.13;;;22.50;96.30;;;;;;5011982;28;20184;-79
2022/08/13 14:35:17;;;;;;;8.87;6.50;;;22.80;96.30;;;;;;5011955;28;20224;-80
2022/08/13 14:37:48;;;;;;;8.87;6.87;;;23.00;96.30;;;;;;5010724;28;20279;-77
2022/08/13 14:40:16;;;;;;;8.57;7.73;;;22.50;96.30;;;;;;5015464;28;20183;-78
2022/08/13 14:42:52;;;;;;;8.13;7.33;;;22.50;96.30;;;;;;5033254;28;20454;-80
2022/08/13 14:48:07;;;;;;;8.40;7.67;;;22.40;96.30;;;;;;5035128;28;20406;-77
2022/08/13 14:50:34;;;;;;;8.73;8.03;;;22.80;96.30;;;;;;5035284;28;20454;-77
2022/08/13 14:53:00;;;;;;;7.10;6.40;;;23.00;96.30;;;;;;5035357;28;20419;-77
2022/08/13 14:55:27;;;;;;;8.57;7.87;;;23.10;96.30;;;;;;5033953;28;20423;-77
2022/08/13 14:57:56;;;;;;;10.57;7.20;;;23.60;96.30;;;;;;5034640;28;20419;-77
2022/08/13 15:00:23;;;;;;;9.00;7.53;;;24.00;96.30;;;;;;5035185;28;20646;-80
2022/08/13 15:02:49;;;;;;;8.20;7.40;;;24.20;96.30;;;;;;5035100;28;20544;-77
2022/08/13 15:05:17;;;;;;;8.30;7.60;;;24.10;96.30;;;;;;5034953;28;20446;-77
2022/08/13 15:07:45;;;;;;;10.10;7.60;;;24.00;96.30;;;;;;5035043;28;20419;-78
2022/08/13 15:10:12;;;;;;;8.00;6.90;;;24.30;96.30;;;;;;5020656;28;20467;-79
2022/08/13 15:12:39;;;;;;;10.23;7.50;;;24.70;96.30;;;;;;5015224;28;20419;-77
2022/08/13 15:15:06;;;;;;;9.57;7.43;;;25.00;96.30;;;;;;5015125;28;20506;-77
2022/08/13 15:17:33;;;;;;;8.03;7.23;;;25.20;96.30;;;;;;5013780;28;20431;-77
2022/08/13 15:19:59;;;;;;;9.13;8.33;;;25.30;96.30;;;;;;5014468;28;20565;-78
2022/08/13 15:22:25;;;;;;;8.00;7.30;;;25.50;96.30;;;;;;5014698;28;20472;-80
2022/08/13 15:24:51;;;;;;;11.10;7.53;;;25.60;96.30;;;;;;5013693;28;20407;-77
2022/08/13 15:27:31;;;;;;;8.27;7.10;;;25.90;96.30;;;;;;5014839;28;20187;-80
2022/08/13 15:29:58;;;;;;;9.20;7.17;;;25.90;96.30;;;;;;5014427;28;20411;-77
2022/08/13 15:32:24;;;;;;;12.53;7.07;;;25.90;96.30;;;;;;5014656;28;20435;-78
2022/08/13 15:34:53;;;;;;;9.17;7.30;;;25.30;96.30;;;;;;5017132;28;20414;-79
2022/08/13 15:37:19;;;;;;;8.33;7.63;;;25.20;96.30;;;;;;5018854;28;20172;-79
2022/08/13 15:39:45;;;;;;;8.73;7.70;;;25.00;96.30;;;;;;5017511;28;20427;-77
2022/08/13 15:42:11;;;;;;;7.73;6.83;;;24.70;96.30;;;;;;5037861;28;20458;-77
2022/08/13 15:44:38;;;;;;;8.80;7.60;;;25.30;96.30;;;;;;5034379;28;20829;-76
2022/08/13 15:47:04;;;;;;;7.97;7.20;;;25.20;96.30;;;;;;5034399;28;20403;-78
2022/08/13 15:49:37;;;;;;;13.57;8.13;;;25.50;96.30;;;;;;5034060;28;20931;-77
2022/08/13 15:52:04;;;;;;;16.23;7.07;;;25.50;96.30;;;;;;5034177;28;20609;-79
2022/08/13 15:54:30;;;;;;;8.97;8.07;;;25.20;96.30;;;;;;5032777;28;20835;-77
2022/08/13 15:57:05;;;;;;;8.83;8.03;;;25.60;96.30;;;;;;5034163;28;20848;-77
2022/08/13 15:59:31;;;;;;;9.63;6.80;;;25.80;96.30;;;;;;5033603;28;20520;-77
2022/08/13 16:01:59;;;;;;;9.80;6.90;;;25.70;96.30;;;;;;5034009;28;20543;-77
2022/08/13 16:04:30;;;;;;;15.00;7.40;;;25.60;96.30;;;;;;5033932;28;20410;-78
2022/08/13 16:07:05;;;;;;;7.30;6.70;;;25.70;96.30;;;;;;5033941;28;20496;-77
2022/08/13 16:09:32;;;;;;;7.90;6.50;;;25.60;96.30;;;;;;5025089;28;20411;-77
2022/08/13 16:11:58;;;;;;;7.70;7.00;;;26.00;96.30;;;;;;5013984;28;20450;-76
2022/08/13 16:14:24;;;;;;;6.60;5.90;;;25.70;96.30;;;;;;5014066;28;20423;-77
2022/08/13 16:16:54;;;;;;;7.67;6.00;;;25.60;96.30;;;;;;5014871;28;20177;-77
2022/08/13 16:19:21;;;;;;;7.23;6.57;;;25.40;96.30;;;;;;5012405;28;20551;-79
2022/08/13 16:21:46;;;;;;;6.47;5.87;;;24.80;96.30;;;;;;5269277;23;20493;-77
2022/08/13 16:24:12;;;;;;;8.30;6.10;;;24.50;96.30;;;;;;5033710;28;20407;-77
2022/08/13 16:26:38;;;;;;;7.90;5.70;;;24.40;96.30;;;;;;5033486;28;20639;-78
2022/08/13 16:29:04;;;;;;;6.40;5.80;;;24.20;96.30;;;;;;5032939;28;20180;-81
2022/08/13 16:31:31;;;;;;;7.13;6.43;;;24.00;96.30;;;;;;5021334;28;20200;-78
2022/08/13 16:33:58;;;;;;;8.33;6.60;;;23.80;96.30;;;;;;5013683;28;20404;-77
2022/08/13 16:36:24;;;;;;;6.90;6.30;;;23.80;96.30;;;;;;5013500;28;20408;-80
2022/08/13 16:38:51;;;;;;;9.63;7.03;;;23.90;96.30;;;;;;5013126;28;20400;-77
2022/08/13 16:41:16;;;;;;;7.10;6.40;;;24.10;96.30;;;;;;5013214;28;20196;-77
2022/08/13 16:43:44;;;;;;;7.50;6.90;;;24.30;96.30;;;;;;5013489;28;20919;-79
2022/08/13 16:46:15;;;;;;;9.47;6.90;;;24.40;96.30;;;;;;5013422;28;20175;-79
2022/08/13 16:48:44;;;;;;;6.97;6.27;;;24.50;96.30;;;;;;5012637;28;20408;-78
2022/08/13 16:51:11;;;;;;;8.23;5.87;;;24.30;96.30;;;;;;5013269;28;20512;-80
2022/08/13 16:53:37;;;;;;;7.50;5.93;;;23.90;96.30;;;;;;5013344;28;20427;-78
2022/08/13 16:56:03;;;;;;;9.20;6.80;;;24.10;96.30;;;;;;5013039;28;20412;-82
2022/08/13 16:58:29;;;;;;;7.77;6.70;;;24.10;96.30;;;;;;5011440;28;20181;-77
2022/08/13 17:00:56;;;;;;;10.90;6.07;;;24.10;96.30;;;;;;5012903;28;20493;-80
2022/08/13 17:11:36;;;;;;;7.50;6.80;;;23.20;96.30;;;;;;5012818;28;20795;-77
2022/08/13 17:14:06;;;;;;;6.87;6.27;;;23.00;96.30;;;;;;5013007;28;20412;-77
2022/08/13 17:16:32;;;;;;;6.60;5.90;;;22.90;96.30;;;;;;5012844;28;20412;-77
2022/08/13 17:19:00;;;;;;;7.67;6.70;;;22.90;96.30;;;;;;5012301;28;20415;-81
2022/08/13 17:21:32;;;;;;;6.97;6.37;;;22.80;96.30;;;;;;5012650;28;20471;-78